.
WxDataArchive / Data Records for 2010-07-05
2010-07-04 July 2010 2010-07-06

Data Records for Monday, 05 July 2010

Time	Temp	Chill	HIndex	Humid	Dewpt	 Wind 	HiWind	WindDir	Rain 	Barom 
-----	----	-----	------	-----	-----	------	------	-------	-----	----- 
00:00	79.9	79.9	83.3	74	70.8	0	1	270	0.00	29.950 
00:05	79.6	79.6	82.8	75	71.0	0	0	---	0.00	29.950 
00:10	79.4	79.4	82.6	76	71.2	0	0	---	0.00	29.950 
00:15	79.2	79.2	82.2	76	71.0	0	0	---	0.00	29.953 
00:20	79.0	79.0	82.0	77	71.2	0	1	270	0.00	29.953 
00:25	78.8	78.8	81.6	77	71.0	0	0	---	0.00	29.953 
00:30	78.6	78.6	81.3	78	71.1	0	0	---	0.00	29.958 
00:35	78.5	78.5	81.2	79	71.4	0	0	---	0.00	29.958 
00:40	78.3	78.3	80.8	79	71.2	0	0	---	0.00	29.958 
00:45	78.3	78.3	80.8	79	71.2	0	0	---	0.00	29.961 
00:50	78.1	78.1	80.5	80	71.4	0	0	---	0.00	29.961 
00:55	78.1	78.1	80.5	80	71.4	0	0	---	0.00	29.961 
01:00	77.9	77.9	80.1	80	71.2	0	0	---	0.00	29.957 
01:05	77.7	77.7	79.8	81	71.4	0	1	270	0.00	29.957 
01:10	77.6	77.6	79.6	81	71.3	0	1	270	0.00	29.957 
01:15	77.6	77.6	79.6	82	71.7	0	1	270	0.00	29.955 
01:20	77.6	77.6	79.6	81	71.3	0	1	270	0.00	29.955 
01:25	77.6	77.6	79.6	81	71.3	0	1	270	0.00	29.955 
01:30	77.6	77.6	79.6	81	71.3	0	1	270	0.00	29.956 
01:35	77.6	77.6	79.6	81	71.3	0	1	270	0.00	29.956 
01:40	77.6	77.6	79.6	81	71.3	0	1	270	0.00	29.956 
01:45	77.7	77.7	79.8	81	71.4	0	1	270	0.00	29.956 
01:50	77.7	77.7	79.8	81	71.4	0	1	270	0.00	29.956 
01:55	77.7	77.7	79.8	81	71.4	0	1	270	0.00	29.956 
02:00	77.7	77.7	79.8	81	71.4	0	2	270	0.00	29.955 
02:05	77.7	77.7	79.8	81	71.4	0	1	270	0.00	29.955 
02:10	77.6	77.6	79.6	81	71.3	0	1	270	0.00	29.955 
02:15	77.6	77.6	79.6	81	71.3	0	1	270	0.00	29.955 
02:20	77.6	77.6	79.6	81	71.3	0	1	270	0.00	29.955 
02:25	77.6	77.6	79.6	81	71.3	0	1	270	0.00	29.955 
02:30	77.4	77.4	79.2	81	71.1	0	1	270	0.00	29.961 
02:35	77.4	77.4	79.2	81	71.1	0	1	270	0.00	29.961 
02:40	77.4	77.4	79.2	81	71.1	0	1	270	0.00	29.961 
02:45	77.4	77.4	79.2	81	71.1	0	2	270	0.00	29.965 
02:50	77.4	77.4	79.2	81	71.1	0	0	---	0.00	29.965 
02:55	77.4	77.4	79.2	81	71.1	0	1	270	0.00	29.965 
03:00	77.2	77.2	78.9	82	71.3	0	1	270	0.00	29.964 
03:05	77.0	77.0	78.5	82	71.1	0	1	270	0.00	29.964 
03:10	77.0	77.0	78.5	82	71.1	0	0	---	0.00	29.964 
03:15	76.8	76.8	78.1	83	71.2	0	0	---	0.00	29.973 
03:20	76.7	76.7	77.9	83	71.1	0	1	270	0.00	29.973 
03:25	76.7	76.7	77.9	83	71.1	0	0	---	0.00	29.973 
03:30	76.5	76.5	77.5	84	71.3	0	0	---	0.00	29.972 
03:35	76.5	76.5	77.5	84	71.3	0	1	270	0.00	29.972 
03:40	76.3	76.3	77.2	84	71.1	0	0	---	0.00	29.972 
03:45	76.1	76.1	76.7	85	71.2	0	1	270	0.00	29.971 
03:50	76.1	76.1	76.7	85	71.2	0	0	---	0.00	29.971 
03:55	76.0	76.0	76.6	85	71.2	0	1	270	0.00	29.971 
04:00	75.8	75.8	76.2	85	71.0	0	0	---	0.00	29.968 
04:05	75.8	75.8	76.1	86	71.3	0	1	270	0.00	29.968 
04:10	75.8	75.8	76.1	86	71.3	0	1	270	0.00	29.968 
04:15	75.8	75.8	76.1	86	71.3	0	1	270	0.00	29.959 
04:20	75.8	75.8	76.1	86	71.3	0	1	270	0.00	29.959 
04:25	75.8	75.8	76.1	86	71.3	0	2	270	0.00	29.959 
04:30	75.8	75.8	76.1	86	71.3	0	1	270	0.00	29.961 
04:35	75.6	75.6	75.8	86	71.1	0	1	270	0.00	29.961 
04:40	75.6	75.6	75.8	86	71.1	0	1	270	0.00	29.961 
04:45	75.6	75.6	75.8	86	71.1	0	1	270	0.00	29.962 
04:50	75.4	75.4	75.4	86	70.9	0	1	270	0.00	29.962 
04:55	75.6	75.6	75.6	87	71.4	0	1	270	0.00	29.962 
05:00	75.6	75.6	75.8	86	71.1	0	1	270	0.00	29.964 
05:05	75.4	75.4	75.4	86	70.9	0	1	270	0.00	29.964 
05:10	75.4	75.4	75.4	86	70.9	0	1	270	0.00	29.964 
05:15	75.4	75.4	75.3	87	71.2	0	1	270	0.00	29.961 
05:20	75.4	75.4	75.3	87	71.2	0	1	270	0.00	29.961 
05:25	75.3	75.3	75.1	87	71.2	0	2	270	0.00	29.961 
05:30	75.3	75.3	75.1	87	71.2	0	0	---	0.00	29.961 
05:35	75.1	75.1	74.7	87	71.0	0	1	270	0.00	29.961 
05:40	75.1	75.1	74.7	87	71.0	0	1	270	0.00	29.961 
05:45	74.9	74.9	74.9	87	70.8	0	1	270	0.00	29.964 
05:50	74.7	74.7	74.7	88	70.9	0	1	270	0.00	29.964 
05:55	74.7	74.7	74.7	88	70.9	0	1	270	0.00	29.964 
06:00	74.6	74.6	74.6	88	70.8	0	1	270	0.00	29.963 
06:05	74.6	74.6	74.6	88	70.8	0	1	270	0.00	29.963 
06:10	74.6	74.6	74.6	88	70.8	0	0	---	0.00	29.963 
06:15	74.4	74.4	74.4	88	70.6	0	1	270	0.00	29.966 
06:20	74.2	74.2	74.2	88	70.4	0	0	---	0.00	29.966 
06:25	74.0	74.0	74.0	89	70.5	0	0	---	0.00	29.966 
06:30	73.9	73.9	73.9	89	70.4	0	1	270	0.00	29.968 
06:35	73.9	73.9	73.9	89	70.4	0	0	---	0.00	29.968 
06:40	73.7	73.7	73.7	90	70.6	0	0	---	0.00	29.968 
06:45	73.7	73.7	73.7	90	70.6	0	1	270	0.00	29.973 
06:50	73.7	73.7	73.7	90	70.6	0	1	270	0.00	29.973 
06:55	73.7	73.7	73.7	90	70.6	0	1	270	0.00	29.973 
07:00	73.7	73.7	73.7	91	70.9	0	1	270	0.00	29.977 
07:05	73.9	73.9	73.9	91	71.1	0	0	---	0.00	29.977 
07:10	74.0	74.0	74.0	91	71.2	0	1	270	0.00	29.977 
07:15	74.0	74.0	74.0	90	70.9	0	1	270	0.00	29.982 
07:20	74.2	74.2	74.2	90	71.1	0	1	270	0.00	29.982 
07:25	74.4	74.4	74.4	90	71.3	0	1	270	0.00	29.982 
07:30	74.7	74.7	74.7	89	71.2	0	1	270	0.00	29.984 
07:35	75.1	75.1	74.6	88	71.3	0	1	270	0.00	29.984 
07:40	75.4	75.4	75.3	87	71.2	0	1	270	0.00	29.984 
07:45	75.8	75.8	76.1	86	71.3	0	2	270	0.00	29.985 
07:50	76.1	76.1	76.7	85	71.2	0	1	270	0.00	29.985 
07:55	76.5	76.5	77.5	84	71.3	1	2	270	0.00	29.985 
08:00	76.8	76.8	78.1	83	71.2	1	2	270	0.00	29.993 
08:05	77.2	77.2	78.9	82	71.3	0	2	270	0.00	29.993 
08:10	77.6	77.6	79.6	81	71.3	0	2	270	0.00	29.993 
08:15	77.9	77.9	80.1	80	71.2	1	4	270	0.00	29.997 
08:20	78.3	78.3	80.8	79	71.2	1	3	270	0.00	29.997 
08:25	78.6	78.6	81.2	77	70.8	1	4	270	0.00	29.997 
08:30	78.8	78.8	81.5	76	70.6	1	4	270	0.00	29.999 
08:35	79.4	79.4	82.6	76	71.2	0	2	270	0.00	29.999 
08:40	79.6	79.6	82.8	75	71.0	1	3	270	0.00	29.999 
08:45	79.9	79.9	83.1	73	70.4	1	3	315	0.00	30.001 
08:50	80.1	80.1	83.5	73	70.6	1	2	225	0.00	30.001 
08:55	80.5	80.5	84.1	72	70.6	1	3	225	0.00	30.001 
09:00	80.7	80.7	84.3	71	70.4	2	4	292	0.00	30.001 
09:05	80.9	80.9	84.8	72	71.0	1	2	292	0.00	30.001 
09:10	81.2	81.2	85.2	71	70.9	1	3	292	0.00	30.001 
09:15	81.8	81.8	85.9	69	70.6	1	3	315	0.00	30.004 
09:20	82.0	82.0	85.8	67	69.9	1	3	292	0.00	30.004 
09:25	82.0	82.0	85.8	67	69.9	2	5	270	0.00	30.004 
09:30	82.4	82.4	86.5	67	70.3	1	2	270	0.00	30.003 
09:35	82.6	82.6	86.2	64	69.2	2	5	270	0.00	30.003 
09:40	82.6	82.6	86.4	65	69.6	1	5	270	0.00	30.003 
09:45	82.8	82.8	86.5	64	69.3	2	5	270	0.00	30.002 
09:50	83.0	83.0	86.9	64	69.5	2	5	270	0.00	30.002 
09:55	83.2	83.2	86.7	62	68.8	2	4	270	0.00	30.002 
10:00	83.4	83.4	87.3	63	69.5	1	4	270	0.00	30.002 
10:05	83.6	83.6	87.6	63	69.6	1	3	270	0.00	30.002 
10:10	83.8	83.8	87.7	62	69.4	1	4	270	0.00	30.002 
10:15	84.0	84.0	88.1	62	69.5	1	5	270	0.00	29.998 
10:20	84.1	84.1	88.0	61	69.2	1	4	270	0.00	29.998 
10:25	84.3	84.3	88.0	60	68.9	2	6	270	0.00	29.998 
10:30	84.5	84.5	87.8	58	68.1	2	9	292	0.00	29.996 
10:35	84.5	84.5	87.8	58	68.1	2	6	292	0.00	29.996 
10:40	84.5	84.5	87.8	58	68.1	2	6	270	0.00	29.996 
10:45	84.7	84.7	88.7	60	69.2	2	5	270	0.00	29.997 
10:50	85.1	85.1	89.1	59	69.1	2	3	270	0.00	29.997 
10:55	85.3	85.3	88.8	57	68.3	2	5	270	0.00	29.997 
11:00	85.3	85.3	88.8	57	68.3	2	5	270	0.00	29.997 
11:05	85.7	85.7	89.9	58	69.2	2	4	270	0.00	29.997 
11:10	86.1	86.1	89.9	56	68.5	2	4	292	0.00	29.997 
11:15	86.3	86.3	89.9	55	68.2	2	4	270	0.00	29.997 
11:20	86.5	86.5	89.9	54	67.8	2	5	270	0.00	29.997 
11:25	86.5	86.5	90.3	55	68.4	2	5	248	0.00	29.997 
11:30	86.7	86.7	90.3	54	68.0	1	4	270	0.00	29.997 
11:35	87.2	87.2	91.1	54	68.5	1	4	248	0.00	29.997 
11:40	87.4	87.4	91.5	54	68.7	1	4	292	0.00	29.997 
11:45	87.6	87.6	90.7	51	67.2	2	4	270	0.00	29.995 
11:50	87.8	87.8	91.4	52	67.9	1	3	315	0.00	29.995 
11:55	87.8	87.8	90.7	50	66.8	2	6	270	0.00	29.995 
12:00	88.0	88.0	92.6	54	69.2	1	4	248	0.00	29.991 
12:05	88.2	88.2	91.4	50	67.2	2	7	248	0.00	29.991 
12:10	88.2	88.2	91.0	49	66.6	2	5	270	0.00	29.991 
12:15	88.0	88.0	90.0	47	65.2	2	4	270	0.00	29.991 
12:20	88.2	88.2	91.4	50	67.2	1	4	248	0.00	29.991 
12:25	88.8	88.8	92.4	50	67.7	1	4	248	0.00	29.991 
12:30	89.3	89.3	92.5	48	67.0	2	4	270	0.00	29.987 
12:35	88.8	88.8	91.3	47	65.9	2	5	270	0.00	29.987 
12:40	88.8	88.8	92.0	49	67.1	2	5	270	0.00	29.987 
12:45	89.0	89.0	92.8	50	67.9	1	3	270	0.00	29.986 
12:50	89.0	89.0	92.0	48	66.7	2	4	270	0.00	29.986 
12:55	89.3	89.3	92.9	49	67.6	2	4	270	0.00	29.986 
13:00	89.0	89.0	92.0	48	66.7	2	7	270	0.00	29.982 
13:05	89.5	89.5	93.2	49	67.8	1	5	270	0.00	29.982 
13:10	89.5	89.5	91.3	44	64.7	2	6	270	0.00	29.982 
13:15	89.5	89.5	92.8	48	67.2	1	4	292	0.00	29.981 
13:20	89.5	89.5	91.7	45	65.3	2	4	270	0.00	29.981 
13:25	88.6	88.6	90.6	46	65.1	2	5	292	0.00	29.981 
13:30	88.8	88.8	92.0	49	67.1	1	3	315	0.00	29.981 
13:35	89.3	89.3	92.1	47	66.4	1	5	270	0.00	29.981 
13:40	89.3	89.3	92.1	47	66.4	2	4	270	0.00	29.981 
13:45	89.3	89.3	92.1	47	66.4	2	4	225	0.00	29.981 
13:50	89.3	89.3	92.5	48	67.0	1	4	225	0.00	29.981 
13:55	89.0	89.0	92.8	50	67.9	1	4	292	0.00	29.981 
14:00	88.6	88.6	91.3	48	66.4	2	7	292	0.00	29.979 
14:05	88.4	88.4	91.7	50	67.4	2	7	248	0.00	29.979 
14:10	88.8	88.8	91.3	47	65.9	2	4	270	0.00	29.979 
14:15	88.8	88.8	90.9	46	65.3	2	5	270	0.00	29.977 
14:20	88.8	88.8	92.8	51	68.3	1	4	292	0.00	29.977 
14:25	89.7	89.7	92.8	47	66.7	1	4	270	0.00	29.977 
14:30	89.7	89.7	92.0	45	65.5	1	5	248	0.00	29.976 
14:35	89.0	89.0	91.6	47	66.1	2	5	248	0.00	29.976 
14:40	88.8	88.8	91.3	47	65.9	1	4	270	0.00	29.976 
14:45	88.6	88.6	89.9	44	63.9	2	4	270	0.00	29.977 
14:50	88.8	88.8	91.6	48	66.5	1	5	270	0.00	29.977 
14:55	89.3	89.3	91.7	46	65.8	1	4	248	0.00	29.977 
15:00	89.3	89.3	91.4	45	65.1	2	4	270	0.00	29.973 
15:05	89.7	89.7	92.0	45	65.5	2	4	292	0.00	29.973 
15:10	89.3	89.3	91.7	46	65.8	1	3	270	0.00	29.973 
15:15	88.8	88.8	91.3	47	65.9	1	3	248	0.00	29.974 
15:20	88.4	88.4	91.3	49	66.8	1	4	248	0.00	29.974 
15:25	89.0	89.0	92.8	50	67.9	1	5	248	0.00	29.974 
15:30	89.7	89.7	92.0	45	65.5	2	5	292	0.00	29.974 
15:35	90.1	90.1	91.9	43	64.5	2	5	292	0.00	29.974 
15:40	90.3	90.3	92.2	43	64.7	2	3	292	0.00	29.974 
15:45	90.5	90.5	92.2	42	64.2	2	5	248	0.00	29.973 
15:50	90.7	90.7	91.7	40	63.0	1	4	292	0.00	29.973 
15:55	90.1	90.1	91.2	41	63.2	2	4	270	0.00	29.973 
16:00	89.5	89.5	91.0	43	64.0	2	6	270	0.00	29.968 
16:05	89.3	89.3	91.0	44	64.5	1	4	248	0.00	29.968 
16:10	89.9	89.9	91.9	44	65.0	1	4	248	0.00	29.968 
16:15	90.7	90.7	92.9	43	65.1	1	4	270	0.00	29.966 
16:20	91.0	91.0	92.2	40	63.3	1	3	248	0.00	29.966 
16:25	91.2	91.2	92.9	41	64.2	1	5	248	0.00	29.966 
16:30	90.3	90.3	91.8	42	64.0	2	5	248	0.00	29.969 
16:35	89.3	89.3	90.6	43	63.8	1	5	270	0.00	29.969 
16:40	89.5	89.5	91.3	44	64.7	1	4	292	0.00	29.969 
16:45	89.9	89.9	91.6	43	64.4	2	4	270	0.00	29.966 
16:50	90.1	90.1	91.9	43	64.5	1	4	270	0.00	29.966 
16:55	90.3	90.3	92.2	43	64.7	2	4	248	0.00	29.966 
17:00	90.5	90.5	92.5	43	64.9	1	3	270	0.00	29.964 
17:05	90.5	90.5	92.2	42	64.2	2	6	270	0.00	29.964 
17:10	90.1	90.1	91.5	42	63.9	2	5	270	0.00	29.964 
17:15	89.7	89.7	91.3	43	64.2	0	3	270	0.00	29.963 
17:20	89.5	89.5	91.0	43	64.0	0	1	270	0.00	29.963 
17:25	89.3	89.3	91.4	45	65.1	1	5	270	0.00	29.963 
17:30	88.6	88.6	89.9	44	63.9	1	2	270	0.00	29.961 
17:35	88.4	88.4	90.3	46	64.9	1	3	270	0.00	29.961 
17:40	88.8	88.8	90.9	46	65.3	1	4	270	0.00	29.961 
17:45	89.0	89.0	90.9	45	64.9	1	4	270	0.00	29.960 
17:50	89.0	89.0	91.2	46	65.5	0	2	270	0.00	29.960 
17:55	89.0	89.0	91.2	46	65.5	0	2	248	0.00	29.960 
18:00	89.0	89.0	91.2	46	65.5	0	4	248	0.00	29.960 
18:05	89.0	89.0	91.2	46	65.5	1	3	270	0.00	29.960 
18:10	88.8	88.8	90.2	44	64.0	0	3	270	0.00	29.960 
18:15	88.4	88.4	89.6	44	63.7	1	3	270	0.00	29.962 
18:20	88.2	88.2	89.3	44	63.5	1	4	292	0.00	29.962 
18:25	88.2	88.2	89.0	43	62.8	1	4	292	0.00	29.962 
18:30	88.2	88.2	88.7	42	62.2	1	4	270	0.00	29.960 
18:35	88.2	88.2	88.7	42	62.2	2	4	270	0.00	29.960 
18:40	88.2	88.2	89.3	44	63.5	0	2	270	0.00	29.960 
18:45	87.8	87.8	88.5	43	62.5	1	3	90	0.00	29.960 
18:50	87.4	87.4	88.2	44	62.8	1	5	90	0.00	29.960 
18:55	87.2	87.2	87.9	44	62.6	2	5	90	0.00	29.960 
19:00	87.2	87.2	88.2	45	63.2	0	2	270	0.00	29.957 
19:05	87.2	87.2	88.5	46	63.9	0	3	270	0.00	29.957 
19:10	87.2	87.2	88.8	47	64.5	0	2	270	0.00	29.957 
19:15	87.2	87.2	88.8	47	64.5	1	3	292	0.00	29.953 
19:20	87.2	87.2	89.1	48	65.1	0	1	292	0.00	29.953 
19:25	87.2	87.2	88.8	47	64.5	1	3	292	0.00	29.953 
19:30	87.2	87.2	88.8	47	64.5	1	4	270	0.00	29.953 
19:35	87.0	87.0	88.8	48	64.9	1	2	270	0.00	29.953 
19:40	86.5	86.5	88.3	49	65.0	1	3	270	0.00	29.953 
19:45	86.5	86.5	88.6	50	65.6	0	3	270	0.00	29.952 
19:50	86.3	86.3	88.3	50	65.4	0	2	270	0.00	29.952 
19:55	86.1	86.1	88.3	51	65.8	0	2	270	0.00	29.952 
20:00	85.9	85.9	87.5	49	64.5	0	1	270	0.00	29.953 
20:05	85.7	85.7	87.4	50	64.9	0	2	270	0.00	29.953 
20:10	85.5	85.5	87.4	51	65.3	0	2	270	0.00	29.953 
20:15	85.3	85.3	86.6	49	63.9	0	1	270	0.00	29.956 
20:20	85.3	85.3	86.9	50	64.5	0	3	270	0.00	29.956 
20:25	85.1	85.1	86.4	49	63.8	0	2	270	0.00	29.956 
20:30	85.1	85.1	86.4	49	63.8	0	1	270	0.00	29.956 
20:35	84.9	84.9	86.3	50	64.2	0	1	270	0.00	29.956 
20:40	84.5	84.5	85.8	50	63.8	0	1	270	0.00	29.956 
20:45	84.5	84.5	86.0	51	64.4	0	2	270	0.00	29.963 
20:50	84.3	84.3	85.7	51	64.2	0	1	270	0.00	29.963 
20:55	84.0	84.0	85.6	52	64.4	0	1	270	0.00	29.963 
21:00	83.8	83.8	85.5	53	64.8	0	2	270	0.00	29.965 
21:05	83.6	83.6	85.5	54	65.2	0	1	270	0.00	29.965 
21:10	83.4	83.4	85.2	54	65.0	0	1	270	0.00	29.965 
21:15	83.2	83.2	85.1	55	65.3	0	0	---	0.00	29.964 
21:20	82.8	82.8	84.8	56	65.5	0	0	---	0.00	29.964 
21:25	82.4	82.4	84.2	56	65.1	0	1	270	0.00	29.964 
21:30	82.0	82.0	83.9	57	65.2	0	0	---	0.00	29.968 
21:35	81.6	81.6	83.5	58	65.4	0	0	---	0.00	29.968 
21:40	81.2	81.2	83.0	58	65.0	0	0	---	0.00	29.968 
21:45	80.9	80.9	82.8	59	65.2	0	0	---	0.00	29.972 
21:50	80.5	80.5	82.4	60	65.3	0	0	---	0.00	29.972 
21:55	80.1	80.1	82.0	61	65.4	0	0	---	0.00	29.972 
22:00	79.8	79.8	81.8	62	65.6	0	0	---	0.00	29.979 
22:05	79.6	79.6	81.5	62	65.4	0	0	---	0.00	29.979 
22:10	79.2	79.2	81.1	63	65.5	0	0	---	0.00	29.979 
22:15	78.8	78.8	80.7	64	65.6	0	0	---	0.00	29.981 
22:20	78.6	78.6	80.6	65	65.8	0	0	---	0.00	29.981 
22:25	78.3	78.3	80.2	65	65.5	0	0	---	0.00	29.981 
22:30	78.1	78.1	80.0	65	65.4	0	0	---	0.00	29.983 
22:35	77.9	77.9	79.8	66	65.6	0	0	---	0.00	29.983 
22:40	77.7	77.7	79.6	67	65.8	0	0	---	0.00	29.983 
22:45	77.4	77.4	79.2	67	65.6	0	0	---	0.00	29.984 
22:50	77.2	77.2	79.0	68	65.8	0	0	---	0.00	29.984 
22:55	77.0	77.0	78.8	69	66.0	0	0	---	0.00	29.984 
23:00	76.7	76.7	78.4	69	65.7	0	0	---	0.00	29.985 
23:05	76.5	76.5	78.2	70	66.0	0	0	---	0.00	29.985 
23:10	76.3	76.3	78.0	70	65.8	0	0	---	0.00	29.985 
23:15	76.1	76.1	77.8	70	65.6	0	0	---	0.00	29.989 
23:20	75.8	75.8	77.4	71	65.7	0	0	---	0.00	29.989 
23:25	75.6	75.6	77.2	71	65.5	0	0	---	0.00	29.989 
23:30	75.3	75.3	76.9	71	65.2	0	0	---	0.00	29.991 
23:35	75.1	75.1	76.6	72	65.4	0	0	---	0.00	29.991 
23:40	75.1	75.1	76.5	73	65.8	0	0	---	0.00	29.991 
23:45	74.9	74.9	74.9	73	65.6	0	0	---	0.00	29.992 
23:50	74.6	74.6	74.6	73	65.4	0	0	---	0.00	29.992 
23:55	74.4	74.4	74.4	74	65.6	0	0	---	0.00	29.992 

CoCoRaHS
IN-AL-39
A2 Web Hosting
Creative Commons License
GoDaddy
search engine by freefind advanced

loaded 2018-11-20 14:59:45 • last modified 2010-11-18 10:43:29
Privacy PolicyDisclaimer
• wx.awcolley.com is powered by PmWiki v.2002016 •
• all content (unless otherwise noted) © 2018 A W Colley